AirNav   Air Wisconsin Up To $57,000 Bonus
 
 1451 users online  

TS50 Austinia Airport
Texas City, Texas, USA

GOING TO TEXAS CITY?


FAA INFORMATION EFFECTIVE 11 AUGUST 2022

Location

FAA Identifier: TS50
Lat/Long: 29-25-02.8360N 094-59-53.7330W
29-25.047267N 094-59.895550W
29.4174544,-94.9982592
(estimated)
Elevation: 15 ft. / 5 m (estimated)
Variation: 06E (1985)
From city: 5 miles NW of TEXAS CITY, TX
Time zone: UTC -5 (UTC -6 during Standard Time)
Zip code: 77590

Airport Operations

Airport use: CLOSED INDEFINITELY
Activation date: 05/1979
Control tower: no
ARTCC: HOUSTON CENTER
FSS: MONTGOMERY COUNTY FLIGHT SERVICE STATION
Attendance: UNATNDD
Wind indicator: yes
Segmented circle: no

Airport Communications

WX ASOS at GLS (12 nm SE): 123.950 (409-740-5483)
WX AWOS-3 at EFD (14 nm NW): 135.575 (713-847-4430)
WX ASOS at LVJ (14 nm NW): 118.525 (281-992-1853)
WX AWOS-3PT at T41 (15 nm N): 120.275 (281-471-2206)
WX ASOS at HOU (20 nm NW): PHONE 713-847-1462

Nearby radio navigation aids

VOR radial/distance  VOR name  Freq  Var
VUHr316/11.2SCHOLES VOR/DME113.0006E
MHFr232/15.2TRINITY VOR/DME113.6007E
IAHr146/37.1HUMBLE VORTAC116.6005E

Airport Services

Runway Information

Runway N/S

Dimensions: 2150 x 100 ft. / 655 x 30 m
Surface: turf
RUNWAY N  RUNWAY S
Traffic pattern: leftleft
Obstructions: 20 ft. trees30 ft. pline

Airport Ownership and Management from official FAA records

Ownership: Privately-owned
Owner: C MICHAEL ORR
2008 TEXAS AVE
TEXAS CITY, TX 77590
Phone 409-948-3461
Manager: C MICHAEL ORR
2008 TEXAS AVE
TEXAS CITY, TX 77590
Phone 409-948-3461

Airport Operational Statistics

Aircraft based on the field: 1
Single engine airplanes: 1
    

Additional Remarks

FOR CD CTC HOUSTON ARTCC AT 281-230-5622.
(ARPT STATUS) ARPT CLSD INDEFLY.

Instrument Procedures

There are no published instrument procedures at TS50.

Some nearby airports with instrument procedures:

KGLS - Scholes International Airport at Galveston (12 nm SE)
KEFD - Ellington Airport (14 nm NW)
KLVJ - Pearland Regional Airport (14 nm NW)
T41 - La Porte Municipal Airport (15 nm N)
KHOU - William P Hobby Airport (20 nm NW)
 
Loc | Ops | Rwys | IFR | FBO | Links
Com | Nav | Svcs | Stats | Notes
Area around TS50 (Austinia Airport)
 
Road maps at: MapQuest Bing Google
 
Aerial photo
No photo
 
Sectional chart

 
Airport distance calculator
Flying to Austinia Airport? Find the distance to fly.

From to TS50

Sunrise and sunset
Times for 11-Aug-2022
 Local
(UTC-5)
 Zulu
(UTC)
Morning civil twilight06:2211:22
Sunrise06:4711:47
Sunset20:0301:03
Evening civil twilight20:2901:29

Current date and time
Zulu (UTC)  11-Aug-2022 21:29:13
Local (UTC-5)  11-Aug-2022 16:29:13
 
METAR
KGLS 
11nm SE 
112052Z 11009KT 10SM SCT029 33/24 A2995 RMK AO2 LTG DSNT NE SLP142 T03280244 58022
KEFD 
14nm NW 
112054Z 00000KT 10SM SCT050 33/22 A2993
KLVJ 
14nm NW 
112053Z AUTO 04006KT 10SM CLR 34/21 A2994 RMK AO2 SLP138 T03440211 58025
KT41 
15nm N 
112115Z AUTO 13006KT 7SM CLR 33/M10 A2993 RMK AO2 LTG DSNT NE THRU SE T03261103
KHOU 
20nm NW 
112053Z 08005KT 10SM FEW050 SCT110 SCT180 BKN250 34/21 A2993 RMK AO2 SLP137 CB DSNT E MOV SW SHRA DSNT NW T03390206 58025
TAF
KGLS 
11nm SE 
111728Z 1118/1218 02009KT P6SM VCSH SCT016 FM112000 08007KT P6SM VCTS SCT030CB BKN200 FM120000 16008KT P6SM SCT040 SCT250 FM120900 VRB04KT P6SM VCSH SCT020 SCT250 FM121600 04007KT P6SM VCTS SCT040CB BKN100
KEFD 
14nm NW 
112000Z 1120/1302 34006KT 9000 -SHRA BKN030 QNH2991INS TEMPO 1120/1200 VRB25G30KT 2400 +TSRA BKN030CB OVC050 BECMG 1200/1201 09006KT 9999 NSW FEW030 QNH2991INS BECMG 1203/1204 11006KT 9999 SCT012 QNH2993INS BECMG 1217/1218 07006KT 9000 -SHRA SCT026 QNH2992INS TEMPO 1218/1222 VRB15G25KT 2400 +TSRA BKN025CB BKN040 OVC055 BECMG 1222/1223 10006KT 9999 NSW SCT040 QNH2989INS TX34/1121Z TN26/1212Z
KHOU 
20nm NW 
111728Z 1118/1218 VRB06KT P6SM FEW030 BKN250 FM111900 05007KT P6SM VCSH SCT040 SCT200 FM112200 13007KT P6SM VCTS SCT040CB BKN250 FM120100 VRB04KT P6SM SCT035 SCT250 FM121100 VRB02KT P6SM VCSH SCT015 SCT250
NOTAMs
Click for the latest NOTAMs
NOTAMs are issued by the DoD/FAA and will open in a separate window not controlled by AirNav.

 

 
 

Would you like to see your business listed on this page?

 If your business provides an interesting product or service to pilots, flight crews, aircraft, or users of the Austinia Airport, you should consider listing it here.  To start the listing process, click on the button below
 
Add a business
 

Other Pages about Austinia Airport

Update a link
 
Copyright © AirNav, LLC. All rights reserved. Privacy Policy  Contact